createdAt,value
2024-02-14T00:00:15.519Z,10.25
2024-02-14T00:02:50.516Z,9.63
2024-02-14T00:05:19.812Z,9.55
2024-02-14T00:07:48.833Z,9.38
2024-02-14T00:10:17.110Z,9.98
2024-02-14T00:12:45.998Z,10.20
2024-02-14T00:15:14.540Z,9.55
2024-02-14T00:17:42.865Z,10.02
2024-02-14T00:20:14.198Z,9.68
2024-02-14T00:22:42.719Z,9.57
2024-02-14T00:25:12.208Z,9.80
2024-02-14T00:27:41.174Z,9.18
2024-02-14T00:30:11.506Z,8.88
2024-02-14T00:32:38.935Z,9.25
2024-02-14T00:35:08.497Z,9.45
2024-02-14T00:37:38.825Z,9.85
2024-02-14T00:40:08.746Z,9.10
2024-02-14T00:42:37.924Z,9.60
2024-02-14T00:45:10.304Z,9.50
2024-02-14T00:47:38.762Z,8.77
2024-02-14T00:50:09.035Z,9.93
2024-02-14T00:52:38.852Z,10.00
2024-02-14T00:55:07.356Z,9.13
2024-02-14T00:57:35.864Z,10.07
2024-02-14T01:00:05.385Z,9.15
2024-02-14T01:02:33.760Z,9.55
2024-02-14T01:05:02.525Z,9.57
2024-02-14T01:07:31.353Z,9.40
2024-02-14T01:10:01.342Z,9.43
2024-02-14T01:12:30.829Z,9.15
2024-02-14T01:14:59.467Z,9.32
2024-02-14T01:17:27.916Z,9.77
2024-02-14T01:19:56.441Z,9.43
2024-02-14T01:22:25.070Z,9.05
2024-02-14T01:24:53.342Z,9.73
2024-02-14T01:27:23.913Z,9.27
2024-02-14T01:29:52.349Z,9.07
2024-02-14T01:32:20.817Z,9.38
2024-02-14T01:34:50.181Z,9.57
2024-02-14T01:37:18.947Z,9.00
2024-02-14T01:39:47.227Z,9.82
2024-02-14T01:42:15.789Z,10.38
2024-02-14T01:44:45.970Z,8.75
2024-02-14T01:47:14.776Z,9.25
2024-02-14T01:49:45.511Z,8.95
2024-02-14T01:52:14.569Z,8.77
2024-02-14T01:54:43.694Z,9.80
2024-02-14T01:57:12.926Z,8.98
2024-02-14T01:59:42.126Z,9.40
2024-02-14T02:02:11.865Z,8.77
2024-02-14T02:04:40.313Z,8.88
2024-02-14T02:07:09.007Z,9.43
2024-02-14T02:09:37.228Z,9.00
2024-02-14T02:12:09.242Z,10.23
2024-02-14T02:14:37.830Z,8.60
2024-02-14T02:17:09.134Z,8.73
2024-02-14T02:19:39.295Z,8.73
2024-02-14T02:22:07.731Z,9.90
2024-02-14T02:24:37.673Z,8.73
2024-02-14T02:27:06.992Z,8.93
2024-02-14T02:29:35.639Z,8.85
2024-02-14T02:32:03.981Z,8.63
2024-02-14T02:34:32.820Z,8.65
2024-02-14T02:37:01.524Z,8.38
2024-02-14T02:39:29.812Z,9.20
2024-02-14T02:42:01.017Z,8.98
2024-02-14T02:44:30.322Z,9.02
2024-02-14T02:46:58.943Z,8.77
2024-02-14T02:49:27.387Z,8.85
2024-02-14T02:51:56.560Z,8.80
2024-02-14T02:54:25.250Z,9.02
2024-02-14T02:56:54.022Z,8.82
2024-02-14T02:59:24.311Z,9.00
2024-02-14T03:01:52.860Z,9.20
2024-02-14T03:04:21.416Z,9.07
2024-02-14T03:06:49.928Z,8.98
2024-02-14T03:09:19.265Z,9.30
2024-02-14T03:11:49.744Z,9.48
2024-02-14T03:14:18.025Z,9.32
2024-02-14T03:16:48.169Z,9.50
2024-02-14T03:19:16.830Z,9.02
2024-02-14T03:21:47.916Z,9.90
2024-02-14T03:24:16.475Z,9.90
2024-02-14T03:26:45.941Z,9.10
2024-02-14T03:29:17.946Z,9.52
2024-02-14T03:31:48.241Z,9.45
2024-02-14T03:34:17.026Z,10.10
2024-02-14T03:36:45.409Z,10.02
2024-02-14T03:39:13.931Z,10.38
2024-02-14T03:41:42.720Z,10.32
2024-02-14T03:44:11.097Z,10.63
2024-02-14T03:46:39.667Z,11.35
2024-02-14T03:49:09.884Z,10.95
2024-02-14T03:51:38.188Z,12.20
2024-02-14T03:54:06.954Z,11.07
2024-02-14T03:56:35.611Z,11.98
2024-02-14T03:59:07.074Z,11.32
2024-02-14T04:01:35.814Z,11.75
2024-02-14T04:04:04.390Z,12.15
2024-02-14T04:06:34.104Z,11.80
2024-02-14T04:09:02.937Z,11.52
2024-02-14T04:11:31.369Z,11.40
2024-02-14T04:13:59.634Z,11.50
2024-02-14T04:16:28.037Z,11.23
2024-02-14T04:18:57.534Z,11.05
2024-02-14T04:21:26.252Z,11.80
2024-02-14T04:23:56.274Z,11.73
2024-02-14T04:26:25.496Z,11.93
2024-02-14T04:28:53.757Z,12.27
2024-02-14T04:31:22.436Z,12.13
2024-02-14T04:33:53.724Z,12.20
2024-02-14T04:36:24.529Z,11.77
2024-02-14T04:38:53.121Z,11.10
2024-02-14T04:41:24.552Z,11.32
2024-02-14T04:43:53.219Z,10.57
2024-02-14T04:46:23.501Z,10.68
2024-02-14T04:48:52.219Z,10.73
2024-02-14T04:51:20.735Z,11.15
2024-02-14T04:53:49.064Z,10.80
2024-02-14T04:56:17.961Z,10.15
2024-02-14T04:58:48.089Z,10.63
2024-02-14T05:01:16.709Z,10.30
2024-02-14T05:03:45.321Z,10.40
2024-02-14T05:06:13.939Z,10.63
2024-02-14T05:08:42.688Z,10.00
2024-02-14T05:11:10.959Z,9.75
2024-02-14T05:13:43.081Z,10.10
2024-02-14T05:16:13.072Z,9.57
2024-02-14T05:18:41.657Z,9.18
2024-02-14T05:21:10.890Z,10.07
2024-02-14T05:23:39.437Z,9.98
2024-02-14T05:26:08.364Z,9.88
2024-02-14T05:28:36.944Z,9.13
2024-02-14T05:31:05.409Z,9.60
2024-02-14T05:33:35.475Z,10.00
2024-02-14T05:36:04.397Z,9.57
2024-02-14T05:38:32.904Z,9.77
2024-02-14T05:41:01.685Z,9.25
2024-02-14T05:43:30.567Z,9.70
2024-02-14T05:45:58.813Z,9.70
2024-02-14T05:48:27.511Z,9.73
2024-02-14T05:50:57.823Z,8.48
2024-02-14T05:53:26.116Z,9.30
2024-02-14T05:55:54.404Z,9.88
2024-02-14T05:58:23.164Z,9.25
2024-02-14T06:00:51.507Z,9.63
2024-02-14T06:03:19.882Z,9.65
2024-02-14T06:05:49.091Z,9.60
2024-02-14T06:08:18.856Z,9.57
2024-02-14T06:10:47.301Z,9.13
2024-02-14T06:13:15.991Z,10.07
2024-02-14T06:15:44.279Z,9.82
2024-02-14T06:18:12.678Z,10.90
2024-02-14T06:20:41.966Z,10.35
2024-02-14T06:23:10.326Z,11.35
2024-02-14T06:25:40.002Z,11.38
2024-02-14T06:28:10.969Z,10.88
2024-02-14T06:30:39.539Z,11.35
2024-02-14T06:33:07.932Z,10.70
2024-02-14T06:35:37.088Z,11.27
2024-02-14T06:38:06.803Z,11.00
2024-02-14T06:40:35.484Z,10.77
2024-02-14T06:43:08.109Z,10.32
2024-02-14T06:45:36.493Z,10.98
2024-02-14T06:48:05.357Z,10.55
2024-02-14T06:50:33.739Z,10.18
2024-02-14T06:53:02.198Z,9.90
2024-02-14T06:55:33.080Z,10.73
2024-02-14T06:58:02.448Z,10.43
2024-02-14T07:00:32.447Z,9.55
2024-02-14T07:03:00.806Z,10.43
2024-02-14T07:05:30.876Z,9.88
2024-02-14T07:07:59.851Z,9.52
2024-02-14T07:10:28.146Z,9.88
2024-02-14T07:12:56.632Z,9.30
2024-02-14T07:15:29.518Z,10.18
2024-02-14T07:18:00.662Z,10.15
2024-02-14T07:20:29.516Z,10.38
2024-02-14T07:22:58.435Z,10.20
2024-02-14T07:25:26.996Z,10.27
2024-02-14T07:27:55.351Z,10.75
2024-02-14T07:30:23.627Z,10.90
2024-02-14T07:32:53.162Z,10.38
2024-02-14T07:35:23.366Z,11.52
2024-02-14T07:37:51.813Z,12.38
2024-02-14T07:40:20.327Z,11.68
2024-02-14T07:42:48.639Z,12.10
2024-02-14T07:45:18.276Z,10.88
2024-02-14T07:47:47.398Z,10.73
2024-02-14T07:50:16.003Z,11.75
2024-02-14T07:52:46.178Z,12.90
2024-02-14T07:55:14.894Z,11.38
2024-02-14T07:57:44.222Z,10.85
2024-02-14T08:00:15.805Z,10.63
2024-02-14T08:02:44.355Z,10.27
2024-02-14T08:05:12.816Z,12.82
2024-02-14T08:07:41.465Z,11.68
2024-02-14T08:10:12.028Z,12.27
2024-02-14T08:12:40.310Z,11.07
2024-02-14T08:15:09.582Z,11.57
2024-02-14T08:17:38.467Z,10.80
2024-02-14T08:20:08.489Z,11.10
2024-02-14T08:22:36.946Z,10.75
2024-02-14T08:25:06.078Z,10.23
2024-02-14T08:27:35.757Z,9.77
2024-02-14T08:30:06.167Z,10.13
2024-02-14T08:32:35.903Z,10.07
2024-02-14T08:35:04.522Z,10.57
2024-02-14T08:37:32.821Z,10.30
2024-02-14T08:40:01.272Z,9.65
2024-02-14T08:42:29.745Z,9.80
2024-02-14T08:44:59.562Z,11.40
2024-02-14T08:47:27.935Z,11.68
2024-02-14T08:49:56.398Z,11.43
2024-02-14T08:52:24.780Z,10.95
2024-02-14T08:54:53.507Z,10.32
2024-02-14T08:57:22.101Z,10.15
2024-02-14T08:59:50.620Z,9.27
2024-02-14T09:02:22.157Z,8.77
2024-02-14T09:04:52.314Z,7.78
2024-02-14T09:07:21.132Z,8.05
2024-02-14T09:09:49.681Z,7.95
2024-02-14T09:12:17.970Z,7.80
2024-02-14T09:14:46.589Z,6.90
2024-02-14T09:17:15.339Z,7.90
2024-02-14T09:19:45.055Z,7.97
2024-02-14T09:22:19.520Z,7.70
2024-02-14T09:24:47.872Z,7.80
2024-02-14T09:27:16.479Z,8.50
2024-02-14T09:29:44.929Z,8.15
2024-02-14T09:32:13.177Z,8.98
2024-02-14T09:34:41.733Z,8.82
2024-02-14T09:37:11.958Z,9.57
2024-02-14T09:39:40.333Z,8.80
2024-02-14T09:42:13.622Z,8.43
2024-02-14T09:44:43.047Z,9.07
2024-02-14T09:47:13.290Z,8.38
2024-02-14T09:49:43.351Z,8.13
2024-02-14T09:52:14.759Z,7.47
2024-02-14T09:54:43.632Z,7.47
2024-02-14T09:57:13.550Z,8.00
2024-02-14T09:59:43.116Z,7.75
2024-02-14T10:02:12.404Z,7.80
2024-02-14T10:04:41.146Z,8.10
2024-02-14T10:07:10.001Z,6.82
2024-02-14T10:09:45.386Z,7.38
2024-02-14T10:12:14.098Z,7.03
2024-02-14T10:14:44.073Z,6.80
2024-02-14T10:17:20.556Z,7.00
2024-02-14T10:19:58.659Z,6.93
2024-02-14T10:22:27.512Z,7.53
2024-02-14T10:24:57.355Z,9.73
2024-02-14T10:27:25.815Z,8.88
2024-02-14T10:29:54.447Z,7.80
2024-02-14T10:32:23.046Z,7.30
2024-02-14T10:34:51.645Z,7.03
2024-02-14T10:37:23.520Z,8.00
2024-02-14T10:39:54.240Z,7.78
2024-02-14T10:42:24.192Z,7.53
2024-02-14T10:44:53.660Z,8.25
2024-02-14T10:47:23.225Z,8.18
2024-02-14T10:49:53.345Z,8.15
2024-02-14T10:52:22.644Z,9.38
2024-02-14T10:54:58.251Z,9.43
2024-02-14T10:57:30.146Z,9.73
2024-02-14T11:00:00.427Z,10.82
2024-02-14T11:02:31.441Z,10.50
2024-02-14T11:04:59.805Z,11.15
2024-02-14T11:07:31.196Z,10.52
2024-02-14T11:10:09.834Z,11.20
2024-02-14T11:12:40.900Z,12.13
2024-02-14T11:15:13.309Z,10.65
2024-02-14T11:17:44.506Z,11.73
2024-02-14T11:20:20.623Z,12.50
2024-02-14T11:23:01.346Z,12.60
2024-02-14T11:25:33.750Z,13.20
2024-02-14T11:28:14.482Z,12.82
2024-02-14T11:30:44.900Z,13.48
2024-02-14T11:33:19.506Z,12.30
2024-02-14T11:35:51.211Z,11.38
2024-02-14T11:38:20.008Z,10.77
2024-02-14T11:40:48.825Z,10.60
2024-02-14T11:43:22.018Z,10.13
2024-02-14T11:45:51.576Z,10.60
2024-02-14T11:48:21.892Z,10.18
2024-02-14T11:50:51.032Z,10.55
2024-02-14T11:53:20.560Z,9.13
2024-02-14T11:55:49.838Z,9.50
2024-02-14T11:58:20.058Z,8.95
2024-02-14T12:00:50.469Z,8.50
2024-02-14T12:03:21.966Z,8.55
2024-02-14T12:05:53.415Z,8.77
2024-02-14T12:08:22.460Z,8.88
2024-02-14T12:10:51.702Z,9.45
2024-02-14T12:13:23.930Z,9.32
2024-02-14T12:15:53.746Z,10.38
2024-02-14T12:18:23.655Z,10.75
2024-02-14T12:20:56.049Z,11.00
2024-02-14T12:23:27.879Z,10.07
2024-02-14T12:25:56.678Z,9.50
2024-02-14T12:28:26.309Z,9.35
2024-02-14T12:30:57.930Z,9.05
2024-02-14T12:33:27.716Z,8.32
2024-02-14T12:35:58.672Z,7.35
2024-02-14T12:38:27.351Z,8.15
2024-02-14T12:40:56.120Z,8.10
2024-02-14T12:43:25.994Z,8.52
2024-02-14T12:45:54.909Z,8.32
2024-02-14T12:48:25.764Z,8.00
2024-02-14T12:50:54.529Z,7.40
2024-02-14T12:53:23.108Z,7.13
2024-02-14T12:55:52.004Z,7.13
2024-02-14T12:58:20.435Z,7.40
2024-02-14T13:00:50.709Z,5.75
2024-02-14T13:03:20.719Z,6.25
2024-02-14T13:05:49.987Z,5.72
2024-02-14T13:08:19.133Z,5.30
2024-02-14T13:10:48.167Z,5.50
2024-02-14T13:13:16.687Z,5.43
2024-02-14T13:15:46.083Z,5.47
2024-02-14T13:18:17.187Z,5.20
2024-02-14T13:20:46.735Z,5.50
2024-02-14T13:23:15.612Z,5.70
2024-02-14T13:25:44.451Z,6.05
2024-02-14T13:28:12.872Z,6.05
2024-02-14T13:30:41.423Z,6.55
2024-02-14T13:33:11.424Z,6.72
2024-02-14T13:35:41.632Z,6.22
2024-02-14T13:38:10.941Z,6.45
2024-02-14T13:40:39.598Z,6.13
2024-02-14T13:43:08.504Z,5.85
2024-02-14T13:45:44.770Z,5.68
2024-02-14T13:48:14.442Z,5.35
2024-02-14T13:50:45.083Z,5.20
2024-02-14T13:53:13.682Z,5.20
2024-02-14T13:55:42.220Z,5.35
2024-02-14T13:58:16.754Z,5.15
2024-02-14T14:00:45.806Z,5.72
2024-02-14T14:03:14.372Z,5.40
2024-02-14T14:05:44.845Z,5.25
2024-02-14T14:08:14.342Z,4.90
2024-02-14T14:10:44.306Z,5.40
2024-02-14T14:13:13.463Z,5.15
2024-02-14T14:15:42.144Z,5.60
2024-02-14T14:18:12.162Z,5.93
2024-02-14T14:20:40.935Z,5.53
2024-02-14T14:23:11.052Z,6.05
2024-02-14T14:25:39.796Z,6.35
2024-02-14T14:28:10.862Z,5.85
2024-02-14T14:30:39.641Z,5.70
2024-02-14T14:33:08.971Z,5.55
2024-02-14T14:35:37.647Z,5.88
2024-02-14T14:38:06.562Z,5.30
2024-02-14T14:40:38.553Z,6.30
2024-02-14T14:43:08.458Z,6.28
2024-02-14T14:45:37.451Z,6.13
2024-02-14T14:48:08.452Z,6.93
2024-02-14T14:50:38.225Z,6.35
2024-02-14T14:53:07.735Z,6.28
2024-02-14T14:55:57.039Z,7.45
2024-02-14T14:58:29.003Z,6.75
2024-02-14T15:00:58.122Z,6.13
2024-02-14T15:03:26.738Z,5.78
2024-02-14T15:05:56.019Z,6.68
2024-02-14T15:08:27.152Z,6.13
2024-02-14T15:10:58.914Z,7.10
2024-02-14T15:13:28.815Z,6.35
2024-02-14T15:15:59.078Z,5.63
2024-02-14T15:18:28.032Z,6.15
2024-02-14T15:20:56.615Z,5.88
2024-02-14T15:23:25.004Z,5.70
2024-02-14T15:25:55.829Z,6.05
2024-02-14T15:28:27.822Z,6.43
2024-02-14T15:31:13.897Z,7.32
2024-02-14T15:33:42.976Z,7.82
2024-02-14T15:36:12.307Z,6.32
2024-02-14T15:38:40.786Z,6.05
2024-02-14T15:41:10.680Z,5.90
2024-02-14T15:43:40.417Z,6.75
2024-02-14T15:46:08.784Z,6.95
2024-02-14T15:48:37.250Z,6.45
2024-02-14T15:51:05.899Z,7.47
2024-02-14T15:53:34.438Z,7.35
2024-02-14T15:56:02.997Z,6.93
2024-02-14T15:58:31.516Z,7.22
2024-02-14T16:01:01.775Z,6.75
2024-02-14T16:03:30.210Z,7.05
2024-02-14T16:05:59.294Z,7.80
2024-02-14T16:08:28.885Z,7.78
2024-02-14T16:10:58.940Z,7.30
2024-02-14T16:13:27.429Z,7.07
2024-02-14T16:15:56.395Z,7.10
2024-02-14T16:18:26.840Z,6.93
2024-02-14T16:20:55.339Z,8.82
2024-02-14T16:23:23.763Z,8.50
2024-02-14T16:25:52.217Z,9.00
2024-02-14T16:28:20.491Z,8.43
2024-02-14T16:30:49.069Z,8.57
2024-02-14T16:33:17.914Z,9.23
2024-02-14T16:35:47.752Z,8.35
2024-02-14T16:38:16.569Z,7.68
2024-02-14T16:40:45.156Z,7.68
2024-02-14T16:43:13.432Z,7.70
2024-02-14T16:45:42.017Z,6.68
2024-02-14T16:48:11.298Z,7.00
2024-02-14T16:50:39.692Z,7.70
2024-02-14T16:53:09.601Z,6.90
2024-02-14T16:55:38.246Z,7.30
2024-02-14T16:58:06.906Z,6.93
2024-02-14T17:00:35.492Z,6.70
2024-02-14T17:03:11.389Z,6.03
2024-02-14T17:05:44.291Z,6.40
2024-02-14T17:08:14.450Z,6.97
2024-02-14T17:10:42.741Z,6.57
2024-02-14T17:13:11.166Z,7.10
2024-02-14T17:15:39.774Z,6.70
2024-02-14T17:18:10.496Z,6.60
2024-02-14T17:20:39.137Z,6.38
2024-02-14T17:23:07.852Z,6.53
2024-02-14T17:25:38.854Z,7.35
2024-02-14T17:28:07.646Z,7.18
2024-02-14T17:30:36.390Z,7.10
2024-02-14T17:33:05.810Z,7.30
2024-02-14T17:35:34.688Z,7.30
2024-02-14T17:38:03.492Z,6.75
2024-02-14T17:40:31.796Z,6.95
2024-02-14T17:43:01.575Z,6.45
2024-02-14T17:45:30.046Z,6.03
2024-02-14T17:47:58.469Z,6.82
2024-02-14T17:50:26.918Z,7.45
2024-02-14T17:52:56.453Z,6.72
2024-02-14T17:55:24.795Z,6.20
2024-02-14T17:57:55.006Z,7.38
2024-02-14T18:00:24.963Z,5.68
2024-02-14T18:02:53.301Z,5.97
2024-02-14T18:05:22.110Z,6.00
2024-02-14T18:07:50.605Z,5.70
2024-02-14T18:10:19.000Z,5.47
2024-02-14T18:12:47.392Z,5.18
2024-02-14T18:15:16.169Z,5.55
2024-02-14T18:17:45.918Z,5.65
2024-02-14T18:20:14.769Z,5.93
2024-02-14T18:22:43.158Z,5.65
2024-02-14T18:25:13.021Z,5.45
2024-02-14T18:27:41.650Z,5.70
2024-02-14T18:30:11.132Z,6.13
2024-02-14T18:32:40.099Z,6.30
2024-02-14T18:35:10.767Z,6.35
2024-02-14T18:37:39.109Z,6.55
2024-02-14T18:40:09.502Z,6.07
2024-02-14T18:42:38.321Z,5.90
2024-02-14T18:45:10.606Z,6.93
2024-02-14T18:47:39.683Z,7.10
2024-02-14T18:50:10.269Z,7.63
2024-02-14T18:52:39.767Z,7.72
2024-02-14T18:55:09.266Z,9.02
2024-02-14T18:57:37.547Z,9.48
2024-02-14T19:00:11.407Z,10.65
2024-02-14T19:02:41.279Z,10.88
2024-02-14T19:05:11.496Z,11.40
2024-02-14T19:07:40.860Z,10.63
2024-02-14T19:10:10.467Z,10.60
2024-02-14T19:12:38.980Z,9.18
2024-02-14T19:15:08.602Z,9.15
2024-02-14T19:17:37.558Z,8.30
2024-02-14T19:20:07.675Z,7.63
2024-02-14T19:22:37.832Z,7.40
2024-02-14T19:25:07.017Z,6.13
2024-02-14T19:27:35.453Z,7.43
2024-02-14T19:30:04.186Z,6.88
2024-02-14T19:32:37.135Z,7.80
2024-02-14T19:35:06.346Z,7.03
2024-02-14T19:37:36.606Z,9.52
2024-02-14T19:40:07.660Z,10.10
2024-02-14T19:42:36.446Z,10.70
2024-02-14T19:45:06.457Z,11.57
2024-02-14T19:47:35.360Z,11.00
2024-02-14T19:50:08.654Z,10.93
2024-02-14T19:52:39.113Z,12.00
2024-02-14T19:55:08.998Z,10.70
2024-02-14T19:57:37.558Z,9.32
2024-02-14T20:00:10.092Z,8.88
2024-02-14T20:02:38.901Z,9.00
2024-02-14T20:05:09.014Z,8.80
2024-02-14T20:07:39.548Z,9.35
2024-02-14T20:10:08.874Z,9.00
2024-02-14T20:12:39.454Z,9.18
2024-02-14T20:15:10.469Z,8.60
2024-02-14T20:17:40.304Z,8.75
2024-02-14T20:20:10.252Z,9.02
2024-02-14T20:22:40.691Z,8.70
2024-02-14T20:25:10.601Z,10.13
2024-02-14T20:27:39.263Z,9.45
2024-02-14T20:30:10.507Z,9.98
2024-02-14T20:32:42.669Z,11.10
2024-02-14T20:35:14.514Z,11.80
2024-02-14T20:37:46.658Z,12.07
2024-02-14T20:40:15.617Z,13.57
2024-02-14T20:42:44.417Z,13.18
2024-02-14T20:45:12.779Z,13.93
2024-02-14T20:47:43.722Z,16.77
2024-02-14T20:50:12.381Z,17.58
2024-02-14T20:52:40.716Z,17.10
2024-02-14T20:55:11.571Z,16.40
2024-02-14T20:57:39.837Z,13.82
2024-02-14T21:00:09.960Z,13.25
2024-02-14T21:02:40.795Z,14.70
2024-02-14T21:05:10.273Z,12.38
2024-02-14T21:07:39.107Z,13.65
2024-02-14T21:10:08.580Z,13.00
2024-02-14T21:12:38.289Z,13.00
2024-02-14T21:15:07.222Z,12.10
2024-02-14T21:17:35.967Z,13.10
2024-02-14T21:20:05.073Z,13.25
2024-02-14T21:22:33.677Z,11.55
2024-02-14T21:25:03.624Z,11.88
2024-02-14T21:27:31.875Z,13.32
2024-02-14T21:30:01.888Z,11.93
2024-02-14T21:32:30.903Z,10.65
2024-02-14T21:34:59.355Z,10.93
2024-02-14T21:37:27.613Z,12.18
2024-02-14T21:39:58.305Z,11.18
2024-02-14T21:42:26.631Z,11.45
2024-02-14T21:44:55.137Z,12.20
2024-02-14T21:47:25.080Z,10.68
2024-02-14T21:49:53.393Z,11.35
2024-02-14T21:52:21.682Z,11.30
2024-02-14T21:54:49.899Z,11.45
2024-02-14T21:57:18.553Z,11.52
2024-02-14T21:59:47.110Z,10.82
2024-02-14T22:02:15.475Z,11.23
2024-02-14T22:04:47.124Z,10.55
2024-02-14T22:07:15.531Z,10.77
2024-02-14T22:09:44.580Z,10.18
2024-02-14T22:12:12.977Z,10.45
2024-02-14T22:14:41.322Z,9.95
2024-02-14T22:17:13.037Z,9.98
2024-02-14T22:19:41.600Z,9.20
2024-02-14T22:22:19.188Z,9.43
2024-02-14T22:24:47.500Z,9.35
2024-02-14T22:27:16.018Z,8.63
2024-02-14T22:29:45.987Z,8.38
2024-02-14T22:32:15.568Z,8.00
2024-02-14T22:34:44.314Z,8.10
2024-02-14T22:37:14.938Z,8.65
2024-02-14T22:39:43.590Z,9.00
2024-02-14T22:42:13.006Z,8.20
2024-02-14T22:44:41.384Z,8.32
2024-02-14T22:47:09.867Z,8.10
2024-02-14T22:49:39.580Z,8.25
2024-02-14T22:52:08.268Z,8.55
2024-02-14T22:54:38.167Z,9.27
2024-02-14T22:57:09.264Z,8.52
2024-02-14T22:59:39.390Z,8.68
2024-02-14T23:02:09.833Z,8.63
2024-02-14T23:04:39.500Z,8.45
2024-02-14T23:07:08.617Z,8.35
2024-02-14T23:09:39.232Z,8.50
2024-02-14T23:12:08.142Z,8.10
2024-02-14T23:14:37.593Z,8.23
2024-02-14T23:17:06.287Z,8.98
2024-02-14T23:19:34.746Z,9.05
2024-02-14T23:22:03.571Z,9.68
2024-02-14T23:24:32.770Z,10.25
2024-02-14T23:27:02.444Z,10.15
2024-02-14T23:29:32.139Z,9.48
2024-02-14T23:32:00.964Z,8.25
2024-02-14T23:34:29.377Z,7.85
2024-02-14T23:36:59.297Z,9.20
2024-02-14T23:39:27.794Z,9.23
2024-02-14T23:41:56.522Z,10.13
2024-02-14T23:44:26.584Z,8.52
2024-02-14T23:46:55.033Z,8.98
2024-02-14T23:49:23.503Z,8.52
2024-02-14T23:51:52.085Z,8.68
2024-02-14T23:54:21.680Z,8.05
2024-02-14T23:56:50.002Z,8.25
2024-02-14T23:59:17.651Z,7.90
